createdAt,value
2023-04-25T00:06:42.118Z,96269.28
2023-04-25T00:11:34.530Z,96274.06
2023-04-25T00:21:56.750Z,96262.06
2023-04-25T00:26:48.598Z,96258.31
2023-04-25T00:31:40.387Z,96254.69
2023-04-25T00:36:32.306Z,96255.28
2023-04-25T00:41:26.096Z,96247.22
2023-04-25T00:46:17.793Z,96244.50
2023-04-25T00:51:16.766Z,96249.28
2023-04-25T00:56:08.879Z,96235.09
2023-04-25T01:01:01.869Z,96233.25
2023-04-25T01:05:54.057Z,96223.47
2023-04-25T01:10:45.754Z,96230.06
2023-04-25T01:15:37.472Z,96223.13
2023-04-25T01:20:30.318Z,96221.88
2023-04-25T01:25:23.583Z,96218.91
2023-04-25T01:30:16.081Z,96232.00
2023-04-25T01:35:11.819Z,96239.03
2023-04-25T01:40:06.319Z,96226.66
2023-04-25T01:44:58.228Z,96224.69
2023-04-25T01:49:49.910Z,96217.19
2023-04-25T01:54:44.988Z,96221.94
2023-04-25T01:59:37.869Z,96203.38
2023-04-25T02:04:29.629Z,96190.63
2023-04-25T02:09:21.475Z,96185.63
2023-04-25T02:14:13.295Z,96185.09
2023-04-25T02:19:05.094Z,96188.47
2023-04-25T02:23:57.340Z,96189.13
2023-04-25T02:28:49.351Z,96186.47
2023-04-25T02:33:41.017Z,96179.16
2023-04-25T02:38:32.707Z,96182.91
2023-04-25T02:43:24.434Z,96186.34
2023-04-25T02:48:16.251Z,96197.72
2023-04-25T02:58:14.465Z,96192.44
2023-04-25T03:03:06.235Z,96191.41
2023-04-25T03:07:58.016Z,96190.53
2023-04-25T03:12:49.819Z,96187.63
2023-04-25T03:17:41.591Z,96187.53
2023-04-25T03:22:33.460Z,96179.56
2023-04-25T03:27:25.131Z,96177.59
2023-04-25T03:32:16.899Z,96179.63
2023-04-25T03:37:08.665Z,96172.97
2023-04-25T03:42:00.704Z,96176.72
2023-04-25T03:46:52.420Z,96178.81
2023-04-25T03:51:44.078Z,96171.09
2023-04-25T03:56:35.913Z,96168.84
2023-04-25T04:01:27.864Z,96171.09
2023-04-25T04:06:21.601Z,96161.16
2023-04-25T04:11:14.220Z,96158.63
2023-04-25T04:16:06.403Z,96158.81
2023-04-25T04:21:00.715Z,96153.63
2023-04-25T04:25:57.180Z,96153.59
2023-04-25T04:30:51.958Z,96148.75
2023-04-25T04:35:43.954Z,96147.63
2023-04-25T04:40:35.736Z,96147.50
2023-04-25T04:45:28.503Z,96148.53
2023-04-25T04:50:20.884Z,96150.50
2023-04-25T04:55:13.119Z,96148.53
2023-04-25T05:00:11.372Z,96155.66
2023-04-25T05:05:03.100Z,96147.81
2023-04-25T05:09:54.792Z,96147.50
2023-04-25T05:14:46.631Z,96149.13
2023-04-25T05:19:38.895Z,96158.63
2023-04-25T05:24:31.543Z,96153.59
2023-04-25T05:29:23.216Z,96156.59
2023-04-25T05:34:15.117Z,96158.28
2023-04-25T05:44:38.042Z,96159.13
2023-04-25T05:49:29.725Z,96150.44
2023-04-25T05:54:21.396Z,96152.28
2023-04-25T05:59:13.070Z,96147.59
2023-04-25T06:04:12.500Z,96149.81
2023-04-25T06:09:04.491Z,96145.03
2023-04-25T06:13:56.175Z,96154.25
2023-04-25T06:18:47.849Z,96151.28
2023-04-25T06:23:39.762Z,96154.97
2023-04-25T06:28:31.779Z,96154.94
2023-04-25T06:38:33.031Z,96133.81
2023-04-25T06:43:25.147Z,96140.63
2023-04-25T06:48:17.859Z,96137.53
2023-04-25T06:53:09.738Z,96137.69
2023-04-25T06:58:01.508Z,96139.81
2023-04-25T07:02:57.306Z,96142.53
2023-04-25T07:07:49.867Z,96142.13
2023-04-25T07:12:41.684Z,96146.69
2023-04-25T07:17:36.129Z,96162.16
2023-04-25T07:22:28.328Z,96171.53
2023-04-25T07:27:21.487Z,96199.09
2023-04-25T07:32:15.336Z,96210.25
2023-04-25T07:37:07.547Z,96214.69
2023-04-25T07:41:59.596Z,96204.59
2023-04-25T07:46:51.472Z,96212.22
2023-04-25T07:51:44.548Z,96208.44
2023-04-25T07:56:49.260Z,96218.72
2023-04-25T08:01:44.784Z,96214.69
2023-04-25T08:06:37.197Z,96220.72
2023-04-25T08:11:29.412Z,96224.47
2023-04-25T08:16:22.171Z,96231.66
2023-04-25T08:21:22.795Z,96236.53
2023-04-25T08:41:24.869Z,96244.31
2023-04-25T08:46:19.445Z,96254.09
2023-04-25T08:51:16.796Z,96259.31
2023-04-25T08:56:11.980Z,96258.06
2023-04-25T09:11:23.490Z,96281.53
2023-04-25T09:16:18.556Z,96294.94
2023-04-25T09:21:15.962Z,96305.06
2023-04-25T09:26:10.236Z,96308.19
2023-04-25T09:36:37.354Z,96326.75
2023-04-25T09:41:31.421Z,96319.47
2023-04-25T09:46:26.069Z,96338.72
2023-04-25T09:51:20.478Z,96341.53
2023-04-25T09:56:15.311Z,96343.59
2023-04-25T10:01:12.165Z,96351.66
2023-04-25T10:06:11.398Z,96345.38
2023-04-25T10:11:07.981Z,96345.19
2023-04-25T10:21:08.879Z,96346.88
2023-04-25T10:26:03.621Z,96341.47
2023-04-25T10:31:09.915Z,96342.00
2023-04-25T10:36:23.572Z,96339.16
2023-04-25T10:41:16.032Z,96337.34
2023-04-25T10:46:39.796Z,96342.63
2023-04-25T10:51:54.309Z,96339.38
2023-04-25T10:56:50.593Z,96347.03
2023-04-25T11:02:14.665Z,96347.84
2023-04-25T11:07:38.359Z,96345.63
2023-04-25T11:12:32.850Z,96346.56
2023-04-25T11:17:28.266Z,96344.94
2023-04-25T11:22:22.135Z,96357.00
2023-04-25T11:27:16.022Z,96345.88
2023-04-25T11:32:10.736Z,96337.72
2023-04-25T11:37:05.704Z,96332.22
2023-04-25T11:41:57.765Z,96335.94
2023-04-25T11:46:50.670Z,96340.84
2023-04-25T11:56:57.397Z,96357.94
2023-04-25T12:01:56.079Z,96363.22
2023-04-25T12:06:51.062Z,96357.19
2023-04-25T12:11:58.015Z,96372.44
2023-04-25T12:21:58.429Z,96390.28
2023-04-25T12:27:14.754Z,96400.69
2023-04-25T12:37:14.173Z,96390.31
2023-04-25T12:47:16.647Z,96387.50
2023-04-25T13:02:24.482Z,96384.38
2023-04-25T13:12:24.437Z,96384.69
2023-04-25T13:17:17.324Z,96377.78
2023-04-25T13:27:19.519Z,96394.81
2023-04-25T13:32:12.264Z,96400.22
2023-04-25T13:42:12.319Z,96393.97
2023-04-25T13:47:05.929Z,96388.25
2023-04-25T13:52:06.589Z,96396.72
2023-04-25T14:07:13.897Z,96402.50
2023-04-25T14:37:50.159Z,96447.84
2023-04-25T14:42:43.529Z,96449.81
2023-04-25T14:47:40.362Z,96451.28
2023-04-25T15:02:48.712Z,96442.31
2023-04-25T15:07:42.029Z,96443.03
2023-04-25T15:12:34.728Z,96442.53
2023-04-25T15:17:26.931Z,96441.59
2023-04-25T15:37:55.486Z,96442.25
2023-04-25T15:48:08.815Z,96451.00
2023-04-25T15:58:11.287Z,96454.66
2023-04-25T16:03:14.777Z,96448.03
2023-04-25T16:08:07.576Z,96443.66
2023-04-25T16:13:03.679Z,96444.97
2023-04-25T16:17:55.798Z,96458.09
2023-04-25T16:22:55.049Z,96474.72
2023-04-25T16:27:48.739Z,96493.09
2023-04-25T16:32:43.961Z,96502.66
2023-04-25T16:37:38.660Z,96524.97
2023-04-25T16:47:36.565Z,96524.38
2023-04-25T16:52:33.497Z,96530.50
2023-04-25T17:02:39.002Z,96532.97
2023-04-25T17:22:54.277Z,96528.59
2023-04-25T17:43:17.354Z,96556.50
2023-04-25T17:48:13.447Z,96554.78
2023-04-25T18:03:18.061Z,96569.91
2023-04-25T18:18:34.417Z,96592.84
2023-04-25T18:23:27.535Z,96589.00
2023-04-25T18:28:20.818Z,96608.34
2023-04-25T18:38:32.111Z,96628.25
2023-04-25T18:53:50.447Z,96635.81
2023-04-25T18:58:47.876Z,96643.59
2023-04-25T19:13:55.446Z,96671.69
2023-04-25T19:18:49.372Z,96670.50
2023-04-25T19:29:22.898Z,96686.84
2023-04-25T19:34:14.618Z,96679.16
2023-04-25T19:39:09.415Z,96683.03
2023-04-25T19:44:24.489Z,96673.94
2023-04-25T19:49:23.547Z,96672.81
2023-04-25T19:54:16.750Z,96679.63
2023-04-25T19:59:10.893Z,96675.63
2023-04-25T20:04:04.465Z,96678.88
2023-04-25T20:08:57.679Z,96675.63
2023-04-25T20:14:02.235Z,96679.25
2023-04-25T20:18:55.106Z,96685.50
2023-04-25T20:23:47.222Z,96688.13
2023-04-25T20:44:00.907Z,96715.09
2023-04-25T21:00:24.308Z,96708.94
2023-04-25T21:11:00.492Z,96706.41
2023-04-25T21:21:02.881Z,96701.19
2023-04-25T21:46:49.630Z,96724.56
2023-04-25T21:51:41.599Z,96722.19
2023-04-25T22:01:53.725Z,96733.09
2023-04-25T22:50:41.602Z,96744.38
2023-04-25T23:00:58.849Z,96737.56
2023-04-25T23:05:50.767Z,96750.16
2023-04-25T23:10:45.596Z,96751.66
2023-04-25T23:15:37.304Z,96738.47
2023-04-25T23:20:29.584Z,96740.47
2023-04-25T23:25:21.758Z,96737.47
2023-04-25T23:30:14.323Z,96748.72
2023-04-25T23:35:06.961Z,96742.75
2023-04-25T23:39:58.674Z,96739.53
2023-04-25T23:44:50.456Z,96739.56
2023-04-25T23:49:42.130Z,96739.38
2023-04-25T23:54:33.793Z,96741.59
2023-04-25T23:59:25.491Z,96747.78
